Авиационная погода в Жезказгане

СКИДКИ НА СМАРТФОНЫ!

Регион: 
Погода METAR: 
UAKD 091430Z 01003MPS 9999 SCT050CB 20/11 Q1009 NOSIG RMK QFE723/0964
Время наблюдения
2022-08-09T14:30:00Z
Температура C
20.0
Точка росы
11.0
Направление ветра
10
Скорость ветра (узлы)
6
Метео видимость
6.21
Облачность
SCT
Нижняя граница облачности (футы)
5000
Явления погоды
Условия полета
VFR
Аэропорт подробнее: 
SCT – разбросанная отдельная облачность;

Скидки на навигаторы!